Terminal Aerodrome Forecast
Issued by NWS Sterling, VA

Current Version | Previous Version | Graphics & Text | Print | Product List | Glossary On
Versions: 1 2 3 4 5 6 7 8 9 10 11 12 13 14 15 16 17 18 19 20 21 22 23
000
FTUS41 KLWX 251140
TAFDCA
TAF
KDCA 251140Z 2512/2612 36004KT P6SM OVC110
     FM251700 26004KT P6SM OVC100
     FM251800 25005KT P6SM -RA OVC090
     FM252100 21006KT P6SM RA OVC060
     FM260000 19004KT 6SM -RA OVC025
     FM260200 VRB03KT 3SM -RA OVC010
     FM260900 00000KT 6SM -RA OVC015
     FM261000 00000KT P6SM OVC015=

USA.gov is the U.S. government's official web portal to all federal, state and local government web resources and services.